Time;durP1;ratioP1;P1;durP2;ratioP2;P2;SDS_P1;SDS_P2;PMS_P1;PMS_P2;Temp;Humidity;BMP_temperature;BMP_pressure;BME280_temperature;BME280_humidity;BME280_pressure;Samples;Min_cycle;Max_cycle;Signal;HPM_P1;HPM_P2
2021/03/09 00:02:14;;;;;;;29.63;18.43;;;5.30;58.10;;;;;;4999929;28;20115;-83
2021/03/09 00:04:40;;;;;;;25.20;16.67;;;5.30;58.10;;;;;;4978538;28;20035;-83
2021/03/09 00:07:05;;;;;;;25.77;16.70;;;5.30;58.20;;;;;;4978401;28;20026;-83
2021/03/09 00:09:31;;;;;;;29.37;18.17;;;5.30;58.20;;;;;;4991659;28;20097;-83
2021/03/09 00:11:57;;;;;;;27.90;18.67;;;5.30;58.10;;;;;;4982027;28;20212;-83
2021/03/09 00:14:23;;;;;;;29.73;18.47;;;5.30;58.20;;;;;;4997417;28;20046;-83
2021/03/09 00:16:48;;;;;;;30.23;19.17;;;5.30;58.20;;;;;;4996126;28;20333;-83
2021/03/09 00:19:14;;;;;;;29.00;19.27;;;5.30;58.10;;;;;;4974589;28;20539;-83
2021/03/09 00:21:40;;;;;;;30.73;20.50;;;5.30;58.10;;;;;;4977045;28;20062;-83
2021/03/09 00:24:06;;;;;;;30.13;18.60;;;5.20;58.10;;;;;;4972754;28;20026;-83
2021/03/09 00:26:31;;;;;;;29.47;19.50;;;5.20;58.40;;;;;;4986589;28;20031;-82
2021/03/09 00:28:57;;;;;;;28.20;18.23;;;5.20;58.40;;;;;;5005910;28;20029;-82
2021/03/09 00:31:23;;;;;;;28.50;18.80;;;5.10;58.40;;;;;;4996310;28;20026;-83
2021/03/09 00:33:48;;;;;;;29.00;18.50;;;5.10;58.50;;;;;;4980396;28;20061;-83
2021/03/09 00:36:14;;;;;;;24.83;15.97;;;5.10;58.40;;;;;;4993350;28;20108;-83
2021/03/09 00:38:40;;;;;;;26.13;15.37;;;5.00;58.60;;;;;;4994958;28;20030;-83
2021/03/09 00:41:06;;;;;;;29.40;17.37;;;5.00;58.50;;;;;;4977632;28;20023;-83
2021/03/09 00:43:32;;;;;;;23.77;15.97;;;4.90;58.50;;;;;;4978795;28;20034;-83
2021/03/09 00:45:57;;;;;;;22.80;15.27;;;4.90;58.50;;;;;;4974050;28;20034;-83
2021/03/09 00:48:23;;;;;;;26.00;16.63;;;4.80;58.60;;;;;;4993694;28;20022;-82
2021/03/09 00:50:49;;;;;;;27.93;17.80;;;4.90;58.80;;;;;;4991587;28;20057;-83
2021/03/09 00:53:15;;;;;;;33.57;19.23;;;4.80;58.70;;;;;;4995540;28;20049;-83
2021/03/09 00:55:41;;;;;;;26.80;17.53;;;4.70;58.90;;;;;;4976394;28;20046;-83
2021/03/09 00:58:07;;;;;;;29.93;18.60;;;4.70;59.10;;;;;;4995053;28;20037;-83
2021/03/09 01:00:33;;;;;;;32.60;20.00;;;4.80;59.20;;;;;;4994833;28;20031;-83
2021/03/09 01:02:59;;;;;;;27.47;18.30;;;4.80;59.20;;;;;;4970596;28;21063;-83
2021/03/09 01:05:25;;;;;;;31.00;18.43;;;4.80;59.10;;;;;;4965257;28;20058;-82
2021/03/09 01:07:51;;;;;;;27.50;16.80;;;4.70;59.20;;;;;;4993125;28;20053;-83
2021/03/09 01:10:20;;;;;;;25.80;16.80;;;4.70;59.10;;;;;;4991826;28;20065;-83
2021/03/09 01:12:46;;;;;;;24.53;16.07;;;4.70;59.20;;;;;;4994086;28;20030;-83
2021/03/09 01:15:12;;;;;;;25.63;17.73;;;4.70;59.10;;;;;;4976272;28;20176;-82
2021/03/09 01:17:38;;;;;;;24.23;17.07;;;4.70;59.20;;;;;;4975153;28;20446;-83
2021/03/09 01:20:07;;;;;;;26.77;17.47;;;4.70;59.20;;;;;;4993397;28;20062;-83
2021/03/09 01:22:33;;;;;;;27.17;18.30;;;4.70;59.30;;;;;;4982567;28;20085;-83
2021/03/09 01:24:58;;;;;;;28.70;19.07;;;4.70;59.40;;;;;;4983562;28;20034;-83
2021/03/09 01:27:24;;;;;;;28.43;18.73;;;4.70;59.40;;;;;;4982268;28;20432;-83
2021/03/09 01:29:50;;;;;;;28.20;18.70;;;4.70;59.50;;;;;;4994913;28;20031;-83
2021/03/09 01:32:16;;;;;;;28.87;19.80;;;4.70;59.60;;;;;;4975952;28;20111;-83
2021/03/09 01:34:41;;;;;;;31.73;20.30;;;4.70;59.60;;;;;;4995735;28;20040;-83
2021/03/09 01:37:07;;;;;;;31.10;20.60;;;4.80;59.70;;;;;;4979371;28;20570;-83
2021/03/09 01:39:34;;;;;;;28.67;20.20;;;4.80;59.60;;;;;;4981764;28;20033;-83
2021/03/09 01:42:00;;;;;;;28.87;19.93;;;4.80;59.60;;;;;;4980937;28;20135;-83
2021/03/09 01:44:26;;;;;;;33.53;19.53;;;4.80;59.60;;;;;;4996607;28;20576;-83
2021/03/09 01:46:53;;;;;;;28.60;19.47;;;4.70;59.80;;;;;;4980746;28;20078;-84
2021/03/09 01:49:19;;;;;;;29.00;18.60;;;4.70;59.80;;;;;;4982989;28;20030;-84
2021/03/09 01:51:46;;;;;;;32.07;19.47;;;4.60;59.80;;;;;;4978563;28;20022;-83
2021/03/09 01:54:13;;;;;;;30.93;18.50;;;4.60;59.80;;;;;;4975864;28;20034;-83
2021/03/09 01:56:40;;;;;;;33.50;20.87;;;4.50;59.80;;;;;;4975084;28;20033;-84
2021/03/09 01:59:07;;;;;;;31.20;20.10;;;4.50;59.90;;;;;;4997420;28;20037;-84
2021/03/09 02:01:36;;;;;;;31.93;21.23;;;4.50;60.00;;;;;;4976334;28;20037;-83
2021/03/09 02:04:05;;;;;;;31.67;21.50;;;4.40;59.90;;;;;;4976319;28;20031;-83
2021/03/09 02:06:33;;;;;;;31.50;19.93;;;4.50;59.90;;;;;;4994504;28;20026;-83
2021/03/09 02:08:59;;;;;;;32.27;20.33;;;4.50;59.80;;;;;;4991096;28;20102;-83
2021/03/09 02:11:51;;;;;;;31.87;22.33;;;4.50;59.70;;;;;;4979506;28;20557;-83
2021/03/09 02:14:48;;;;;;;32.53;20.60;;;4.50;59.60;;;;;;5003341;28;20047;-83
2021/03/09 02:17:23;;;;;;;32.93;21.17;;;4.50;59.40;;;;;;4956016;28;20465;-83
2021/03/09 02:20:26;;;;;;;28.63;19.37;;;4.40;59.50;;;;;;4974973;28;20057;-83
2021/03/09 02:23:10;;;;;;;29.45;17.90;;;4.40;59.60;;;;;;4995967;28;20443;-83
2021/03/09 02:26:04;;;;;;;27.23;18.17;;;4.30;59.60;;;;;;4997468;28;20083;-83
2021/03/09 02:28:45;;;;;;;;;;;4.20;59.50;;;;;;4971079;28;20482;-83
2021/03/09 02:31:10;;;;;;;27.70;16.97;;;4.20;59.60;;;;;;4992951;28;19909;-83
2021/03/09 02:33:40;;;;;;;27.67;18.83;;;4.20;59.50;;;;;;4996894;28;20101;-83
2021/03/09 02:36:13;;;;;;;35.13;20.07;;;4.20;59.80;;;;;;4996365;28;20037;-83
2021/03/09 02:38:47;;;;;;;30.53;19.50;;;4.20;60.00;;;;;;4976356;28;20030;-83
2021/03/09 02:41:15;;;;;;;32.20;20.63;;;4.20;60.10;;;;;;4981569;28;20035;-83
2021/03/09 02:43:47;;;;;;;29.50;20.10;;;4.30;60.10;;;;;;4986702;28;20033;-83
2021/03/09 02:46:14;;;;;;;;;;;4.20;60.20;;;;;;4996949;28;20034;-83
2021/03/09 02:48:41;;;;;;;27.60;19.10;;;4.10;60.20;;;;;;5000709;28;19918;-83
2021/03/09 02:51:08;;;;;;;27.20;18.60;;;4.10;60.20;;;;;;4986812;28;20401;-83
2021/03/09 02:53:35;;;;;;;27.40;18.77;;;4.10;60.20;;;;;;4976412;28;20045;-83
2021/03/09 02:56:06;;;;;;;29.63;19.40;;;4.10;60.10;;;;;;4980009;28;20493;-83
2021/03/09 02:58:33;;;;;;;33.13;19.13;;;4.00;60.10;;;;;;4979141;28;20204;-83
2021/03/09 03:01:00;;;;;;;30.10;19.03;;;4.00;60.40;;;;;;4977716;28;20034;-83
2021/03/09 03:03:26;;;;;;;29.77;19.50;;;4.00;60.20;;;;;;4975333;28;20500;-82
2021/03/09 03:05:56;;;;;;;31.23;21.27;;;4.00;60.40;;;;;;4978470;28;20038;-83
2021/03/09 03:08:23;;;;;;;28.03;20.93;;;3.90;60.30;;;;;;4978175;28;20104;-83
2021/03/09 03:10:51;;;;;;;30.93;21.50;;;4.00;60.70;;;;;;4992158;28;20058;-83
2021/03/09 03:13:18;;;;;;;33.70;20.53;;;4.00;60.70;;;;;;4978455;28;20115;-83
2021/03/09 03:15:47;;;;;;;33.07;21.90;;;4.00;60.80;;;;;;4995792;28;20854;-82
2021/03/09 03:18:15;;;;;;;36.57;23.20;;;4.00;60.90;;;;;;4979999;28;20046;-83
2021/03/09 03:20:45;;;;;;;32.80;21.87;;;4.00;61.10;;;;;;4980716;28;20065;-82
2021/03/09 03:23:12;;;;;;;29.47;20.37;;;4.00;61.20;;;;;;4987570;28;20053;-83
2021/03/09 03:25:39;;;;;;;30.50;19.60;;;4.00;61.10;;;;;;5017551;28;20022;-83
2021/03/09 03:28:08;;;;;;;33.47;20.30;;;4.00;60.90;;;;;;4973187;28;20042;-82
2021/03/09 03:30:35;;;;;;;35.53;21.13;;;3.80;60.80;;;;;;4982575;28;20029;-82
2021/03/09 03:33:01;;;;;;;32.80;20.97;;;3.80;61.10;;;;;;4978120;28;20029;-82
2021/03/09 03:35:27;;;;;;;32.43;21.23;;;3.70;61.10;;;;;;4991245;28;20046;-82
2021/03/09 03:37:53;;;;;;;32.83;20.13;;;3.70;61.10;;;;;;4984654;28;20424;-82
2021/03/09 03:40:21;;;;;;;30.23;20.47;;;3.70;61.10;;;;;;4976478;28;20030;-82
2021/03/09 03:42:48;;;;;;;32.60;19.00;;;3.70;61.20;;;;;;4992716;28;20442;-82
2021/03/09 03:45:16;;;;;;;32.47;21.63;;;3.70;60.90;;;;;;4977403;28;20045;-82
2021/03/09 03:47:43;;;;;;;31.60;21.17;;;3.70;60.80;;;;;;4997784;28;20034;-82
2021/03/09 03:50:11;;;;;;;32.80;20.57;;;3.60;60.80;;;;;;4980351;28;20458;-82
2021/03/09 03:52:46;;;;;;;32.37;20.07;;;3.50;61.10;;;;;;4993589;28;20029;-83
2021/03/09 03:55:34;;;;;;;28.60;19.33;;;3.60;61.30;;;;;;4975911;28;20037;-83
2021/03/09 03:58:21;;;;;;;29.83;19.90;;;3.60;61.10;;;;;;4988706;28;20034;-82
2021/03/09 04:00:47;;;;;;;30.37;20.53;;;3.60;61.20;;;;;;4974004;28;20037;-82
2021/03/09 04:03:14;;;;;;;29.97;20.17;;;3.60;61.10;;;;;;4979941;28;20045;-82
2021/03/09 04:05:47;;;;;;;29.00;19.50;;;3.60;61.20;;;;;;5000519;28;20038;-83
2021/03/09 04:08:13;;;;;;;;;;;3.60;61.10;;;;;;4974328;28;20026;-82
2021/03/09 04:10:42;;;;;;;29.87;18.07;;;3.60;60.90;;;;;;4978100;28;19976;-81
2021/03/09 04:13:09;;;;;;;33.43;19.13;;;3.70;60.60;;;;;;4993033;28;20031;-82
2021/03/09 04:15:35;;;;;;;28.10;18.70;;;3.70;60.60;;;;;;4998438;28;20030;-82
2021/03/09 04:18:05;;;;;;;26.70;18.13;;;3.60;60.60;;;;;;4995833;28;20481;-82
2021/03/09 04:20:32;;;;;;;30.77;18.83;;;3.60;60.80;;;;;;4977937;28;20047;-82
2021/03/09 04:22:59;;;;;;;27.50;17.53;;;3.60;61.50;;;;;;4990718;28;20037;-82
2021/03/09 04:25:27;;;;;;;27.17;17.77;;;3.60;61.10;;;;;;4983221;28;20022;-82
2021/03/09 04:27:53;;;;;;;29.03;18.50;;;3.60;61.20;;;;;;4999502;28;20425;-82
2021/03/09 04:30:19;;;;;;;29.33;18.23;;;3.50;61.10;;;;;;4990658;28;20018;-83
2021/03/09 04:32:45;;;;;;;28.03;18.30;;;3.50;61.50;;;;;;4968956;28;20026;-83
2021/03/09 04:35:11;;;;;;;28.10;19.10;;;3.50;61.60;;;;;;4978654;28;20551;-82
2021/03/09 04:37:39;;;;;;;32.53;20.40;;;3.40;61.60;;;;;;4973562;28;20107;-82
2021/03/09 04:40:07;;;;;;;30.77;18.27;;;3.40;61.70;;;;;;4977885;28;20078;-82
2021/03/09 04:42:32;;;;;;;40.63;19.30;;;3.40;61.70;;;;;;5008656;28;20390;-82
2021/03/09 04:44:58;;;;;;;32.00;19.70;;;3.50;61.80;;;;;;4998990;28;20023;-83
2021/03/09 04:47:25;;;;;;;30.43;20.00;;;3.50;61.80;;;;;;4983737;28;20068;-84
2021/03/09 04:49:55;;;;;;;30.87;19.53;;;3.50;61.90;;;;;;4980580;28;20015;-84
2021/03/09 04:52:22;;;;;;;29.63;18.90;;;3.40;62.00;;;;;;4977446;28;20110;-84
2021/03/09 04:54:48;;;;;;;65.20;27.67;;;3.40;62.00;;;;;;4974886;28;20034;-84
2021/03/09 04:57:14;;;;;;;54.70;25.33;;;3.40;61.90;;;;;;4985061;28;20362;-84
2021/03/09 04:59:39;;;;;;;41.20;21.33;;;3.40;62.00;;;;;;5000758;28;20030;-84
2021/03/09 05:02:05;;;;;;;33.00;18.93;;;3.30;61.90;;;;;;4984898;28;20539;-83
2021/03/09 05:04:31;;;;;;;32.60;20.43;;;3.30;62.00;;;;;;4978407;28;20316;-84
2021/03/09 05:06:56;;;;;;;34.37;19.90;;;3.20;62.00;;;;;;4976247;28;20036;-83
2021/03/09 05:09:22;;;;;;;30.00;18.77;;;3.20;62.00;;;;;;4978433;28;20389;-84
2021/03/09 05:11:48;;;;;;;32.90;20.20;;;3.20;62.10;;;;;;4991984;28;20115;-83
2021/03/09 05:14:14;;;;;;;27.27;18.30;;;3.10;62.10;;;;;;4974140;28;20049;-83
2021/03/09 05:16:39;;;;;;;31.77;18.50;;;3.20;62.10;;;;;;4981233;28;20088;-83
2021/03/09 05:19:05;;;;;;;34.70;20.83;;;3.20;61.90;;;;;;4974456;28;20023;-82
2021/03/09 05:21:32;;;;;;;37.27;19.23;;;3.20;61.80;;;;;;4959016;28;20047;-82
2021/03/09 05:23:57;;;;;;;32.40;19.90;;;3.10;62.20;;;;;;4971212;28;20032;-82
2021/03/09 05:26:23;;;;;;;30.30;20.27;;;3.10;62.10;;;;;;4975734;28;20054;-83
2021/03/09 05:28:49;;;;;;;34.10;21.03;;;3.00;62.10;;;;;;4976615;28;20034;-83
2021/03/09 05:31:15;;;;;;;34.97;21.37;;;3.10;62.20;;;;;;4978261;28;20121;-82
2021/03/09 05:33:41;;;;;;;42.23;20.93;;;3.00;61.90;;;;;;4978663;28;20028;-82
2021/03/09 05:36:07;;;;;;;35.93;21.73;;;3.00;62.10;;;;;;4980539;28;20026;-83
2021/03/09 05:38:32;;;;;;;37.63;21.53;;;3.00;62.10;;;;;;4995480;28;20117;-83
2021/03/09 05:40:59;;;;;;;36.80;22.13;;;3.00;62.10;;;;;;4973083;28;20030;-83
2021/03/09 05:43:25;;;;;;;33.53;20.93;;;3.00;62.10;;;;;;4974947;28;20053;-84
2021/03/09 05:45:54;;;;;;;34.73;20.20;;;3.00;62.30;;;;;;4976149;28;20054;-83
2021/03/09 05:48:20;;;;;;;43.80;20.77;;;3.00;62.20;;;;;;4977537;28;20027;-83
2021/03/09 05:50:45;;;;;;;35.00;20.03;;;3.00;62.00;;;;;;4971383;28;20038;-83
2021/03/09 05:53:11;;;;;;;36.23;21.20;;;3.00;62.00;;;;;;4973838;28;20077;-83
2021/03/09 05:55:37;;;;;;;35.53;23.63;;;3.00;62.00;;;;;;5001651;28;20022;-83
2021/03/09 05:58:03;;;;;;;38.30;25.03;;;3.00;62.00;;;;;;4991526;28;20112;-83
2021/03/09 06:00:29;;;;;;;39.00;25.00;;;2.90;62.10;;;;;;4978866;28;20147;-83
2021/03/09 06:02:55;;;;;;;36.93;23.50;;;2.90;62.10;;;;;;4993232;28;20027;-83
2021/03/09 06:05:21;;;;;;;37.40;22.13;;;2.90;62.20;;;;;;4996303;28;20048;-83
2021/03/09 06:07:47;;;;;;;43.33;26.33;;;2.90;62.20;;;;;;4972666;28;20114;-83
2021/03/09 06:10:21;;;;;;;50.40;27.20;;;3.00;62.20;;;;;;4980660;28;20084;-83
2021/03/09 06:12:47;;;;;;;39.97;24.07;;;3.00;62.00;;;;;;4975353;28;20517;-84
2021/03/09 06:15:13;;;;;;;43.63;24.50;;;3.10;61.90;;;;;;4979273;28;20114;-84
2021/03/09 06:17:40;;;;;;;46.40;25.90;;;3.10;61.80;;;;;;4979849;28;20415;-84
2021/03/09 06:20:08;;;;;;;49.37;26.73;;;3.00;61.70;;;;;;4978257;28;20042;-84
2021/03/09 06:22:43;;;;;;;43.37;25.87;;;3.00;62.00;;;;;;4990445;28;20037;-84
2021/03/09 06:25:11;;;;;;;41.83;24.77;;;3.00;61.90;;;;;;4979823;28;20486;-84
2021/03/09 06:27:38;;;;;;;41.00;25.67;;;2.90;62.00;;;;;;4988780;28;20023;-84
2021/03/09 06:30:10;;;;;;;46.20;26.33;;;2.90;62.10;;;;;;5010231;28;20026;-84
2021/03/09 06:32:44;;;;;;;48.03;26.65;;;3.00;62.30;;;;;;4969906;28;20027;-84
2021/03/09 06:35:25;;;;;;;46.57;25.53;;;3.00;62.30;;;;;;4982393;28;20085;-84
2021/03/09 06:37:51;;;;;;;38.23;24.23;;;3.00;62.30;;;;;;4973118;28;20089;-84
2021/03/09 06:40:17;;;;;;;39.67;24.40;;;3.00;62.30;;;;;;4978538;28;20513;-84
2021/03/09 06:42:43;;;;;;;37.67;22.47;;;3.00;62.50;;;;;;4974515;28;20077;-85
2021/03/09 06:45:10;;;;;;;44.97;26.40;;;3.10;62.60;;;;;;4975844;28;20030;-85
2021/03/09 06:47:47;;;;;;;45.53;25.70;;;3.10;62.60;;;;;;4979311;28;20029;-85
2021/03/09 06:50:33;;;;;;;52.80;30.23;;;3.10;62.60;;;;;;4981285;28;20033;-85
2021/03/09 06:53:04;;;;;;;45.37;28.20;;;3.10;62.60;;;;;;4974129;28;20015;-86
2021/03/09 06:55:34;;;;;;;43.23;25.10;;;3.20;62.40;;;;;;4984113;28;20022;-85
2021/03/09 06:58:10;;;;;;;37.53;23.77;;;3.20;62.30;;;;;;4992226;28;20512;-85
2021/03/09 07:00:36;;;;;;;37.93;24.37;;;3.20;62.40;;;;;;4995550;28;20050;-84
2021/03/09 07:03:02;;;;;;;42.93;24.83;;;3.20;62.60;;;;;;4982425;28;20042;-84
2021/03/09 07:05:28;;;;;;;36.20;22.03;;;3.20;62.60;;;;;;4978729;28;20018;-84
2021/03/09 07:07:54;;;;;;;35.77;20.70;;;3.20;62.50;;;;;;4975868;28;20029;-84
2021/03/09 07:10:20;;;;;;;39.23;24.10;;;3.30;62.60;;;;;;4992814;28;20078;-84
2021/03/09 07:12:48;;;;;;;59.83;33.37;;;3.30;62.50;;;;;;4979267;28;20030;-84
2021/03/09 07:15:19;;;;;;;49.87;27.17;;;3.40;62.50;;;;;;4979997;28;20046;-84
2021/03/09 07:17:47;;;;;;;34.10;21.10;;;3.40;62.40;;;;;;4971065;28;20026;-84
2021/03/09 07:20:14;;;;;;;31.33;19.10;;;3.40;62.20;;;;;;4976101;28;20038;-84
2021/03/09 07:22:41;;;;;;;43.07;23.83;;;3.40;62.30;;;;;;4993921;28;20030;-84
2021/03/09 07:25:17;;;;;;;37.87;20.50;;;3.50;62.30;;;;;;4999046;28;20098;-84
2021/03/09 07:27:56;;;;;;;30.23;19.47;;;3.50;62.00;;;;;;4997310;28;20022;-83
2021/03/09 07:30:23;;;;;;;30.83;18.20;;;3.60;62.10;;;;;;4983279;28;20026;-83
2021/03/09 07:32:52;;;;;;;29.30;18.90;;;3.60;62.10;;;;;;5008663;28;20374;-83
2021/03/09 07:35:21;;;;;;;28.63;18.83;;;3.60;62.00;;;;;;4977150;28;20121;-84
2021/03/09 07:37:49;;;;;;;37.93;20.50;;;3.70;62.10;;;;;;4997116;28;20465;-84
2021/03/09 07:40:17;;;;;;;37.83;21.00;;;3.70;62.00;;;;;;4981617;28;20035;-83
2021/03/09 07:42:43;;;;;;;31.90;20.07;;;3.70;61.90;;;;;;4986106;28;20030;-83
2021/03/09 07:45:11;;;;;;;32.40;19.97;;;3.70;62.00;;;;;;4991233;28;20453;-83
2021/03/09 07:47:53;;;;;;;34.43;20.73;;;3.80;62.00;;;;;;4975860;28;20170;-83
2021/03/09 07:50:20;;;;;;;35.47;20.07;;;3.90;61.90;;;;;;4982388;28;20492;-83
2021/03/09 07:53:03;;;;;;;27.93;19.27;;;3.90;61.70;;;;;;4996098;28;20026;-83
2021/03/09 07:55:30;;;;;;;28.70;19.17;;;3.90;61.70;;;;;;5014430;28;20027;-83
2021/03/09 07:58:21;;;;;;;34.30;20.83;;;3.90;61.70;;;;;;4970560;28;20142;-84
2021/03/09 08:01:10;;;;;;;31.07;20.07;;;4.00;61.90;;;;;;4984715;28;20081;-84
2021/03/09 08:03:41;;;;;;;31.30;19.77;;;4.10;61.90;;;;;;4995275;28;20053;-83
2021/03/09 08:06:12;;;;;;;37.90;21.00;;;4.10;61.80;;;;;;5005330;28;20453;-83
2021/03/09 08:08:50;;;;;;;40.20;21.63;;;4.10;62.00;;;;;;4977234;28;20481;-83
2021/03/09 08:11:19;;;;;;;36.43;21.37;;;4.20;62.00;;;;;;4990968;28;20024;-83
2021/03/09 08:14:08;;;;;;;37.43;22.17;;;4.20;62.00;;;;;;4994496;28;20500;-83
2021/03/09 08:16:37;;;;;;;36.30;22.90;;;4.30;62.00;;;;;;4969504;28;20125;-83
2021/03/09 08:19:32;;;;;;;39.17;21.50;;;4.40;61.80;;;;;;4978561;28;20030;-83
2021/03/09 08:22:00;;;;;;;32.33;20.80;;;4.50;61.80;;;;;;4995852;28;20029;-85
2021/03/09 08:24:42;;;;;;;32.23;19.77;;;5.10;61.00;;;;;;4978433;28;20026;-83
2021/03/09 08:27:30;;;;;;;27.93;18.67;;;6.40;59.80;;;;;;4980587;28;20023;-84
2021/03/09 08:29:57;;;;;;;27.93;19.73;;;7.50;58.70;;;;;;4977874;28;20451;-84
2021/03/09 08:32:30;;;;;;;28.90;19.33;;;8.00;58.60;;;;;;4978890;28;20049;-85
2021/03/09 08:35:11;;;;;;;28.70;19.23;;;8.40;58.10;;;;;;4974657;28;20033;-85
2021/03/09 08:37:37;;;;;;;27.17;17.40;;;8.60;57.80;;;;;;4972333;28;20030;-86
2021/03/09 08:40:12;;;;;;;27.73;17.27;;;8.70;58.20;;;;;;4962477;28;20035;-86
2021/03/09 08:43:03;;;;;;;27.33;17.90;;;8.80;57.20;;;;;;4969931;28;20030;-86
2021/03/09 08:45:38;;;;;;;24.73;17.63;;;8.80;56.70;;;;;;4975901;28;20469;-85
2021/03/09 08:48:11;;;;;;;29.53;19.03;;;8.80;56.40;;;;;;4977822;28;20026;-85
2021/03/09 08:50:44;;;;;;;;;;;8.70;56.20;;;;;;4977881;28;20030;-85
2021/03/09 08:53:29;;;;;;;24.50;17.42;;;8.60;56.30;;;;;;4995256;28;20257;-85
2021/03/09 08:56:03;;;;;;;27.57;19.00;;;8.50;56.20;;;;;;4996695;28;20081;-85
2021/03/09 08:58:30;;;;;;;28.47;19.77;;;8.40;55.80;;;;;;4978362;28;20081;-85
2021/03/09 09:00:56;;;;;;;33.90;19.90;;;8.20;55.80;;;;;;4978575;28;20018;-85
2021/03/09 09:03:38;;;;;;;30.23;18.57;;;8.10;55.90;;;;;;4971601;28;20885;-85
2021/03/09 09:06:05;;;;;;;32.27;19.03;;;8.20;55.70;;;;;;4994948;28;20031;-86
2021/03/09 09:08:31;;;;;;;27.53;19.37;;;8.20;55.90;;;;;;5010324;28;20049;-86
2021/03/09 09:10:58;;;;;;;28.20;19.57;;;8.30;55.70;;;;;;4979012;28;20038;-86
2021/03/09 09:13:35;;;;;;;30.63;19.00;;;8.30;55.50;;;;;;4980728;28;20022;-85
2021/03/09 09:16:02;;;;;;;28.80;20.00;;;8.40;55.40;;;;;;4975969;28;20035;-86
2021/03/09 09:18:28;;;;;;;23.00;17.30;;;8.60;55.50;;;;;;4974497;28;20029;-85
2021/03/09 09:20:54;;;;;;;28.07;18.90;;;8.90;55.30;;;;;;4964131;28;20049;-85
2021/03/09 09:23:25;;;;;;;31.27;18.70;;;9.10;54.90;;;;;;4984766;28;20097;-85
2021/03/09 09:26:00;;;;;;;26.23;18.17;;;9.20;54.40;;;;;;4993275;28;20022;-85
2021/03/09 09:28:33;;;;;;;24.73;17.97;;;9.30;54.10;;;;;;4987536;28;20532;-85
2021/03/09 09:31:16;;;;;;;27.83;19.10;;;9.40;53.80;;;;;;4979483;28;20417;-85
2021/03/09 09:33:51;;;;;;;;;;;9.40;53.70;;;;;;4986927;28;20055;-86
2021/03/09 09:36:18;;;;;;;27.23;17.60;;;9.50;53.90;;;;;;4985482;28;19906;-85
2021/03/09 09:38:52;;;;;;;28.90;18.53;;;9.50;53.30;;;;;;4975857;28;20027;-85
2021/03/09 09:41:21;;;;;;;29.07;19.30;;;9.60;53.30;;;;;;4978882;28;20034;-86
2021/03/09 09:43:47;;;;;;;28.00;18.00;;;9.80;53.30;;;;;;4978500;28;20030;-85
2021/03/09 09:46:22;;;;;;;26.53;18.10;;;10.00;52.60;;;;;;4985301;28;20727;-88
2021/03/09 09:48:48;;;;;;;66.33;33.67;;;10.20;52.00;;;;;;4987840;28;20429;-85
2021/03/09 09:51:16;;;;;;;38.80;22.13;;;10.30;51.80;;;;;;4981499;28;20065;-86
2021/03/09 09:53:47;;;;;;;53.63;28.03;;;10.40;51.40;;;;;;4983145;28;20034;-85
2021/03/09 09:56:22;;;;;;;34.73;18.87;;;10.50;51.00;;;;;;4977506;28;20029;-85
2021/03/09 09:58:48;;;;;;;40.63;23.40;;;10.60;50.40;;;;;;4977599;28;20041;-85
2021/03/09 10:01:17;;;;;;;32.50;17.17;;;10.60;50.50;;;;;;4990957;28;20060;-85
2021/03/09 10:04:00;;;;;;;30.63;18.53;;;10.80;50.20;;;;;;4994835;28;20121;-85
2021/03/09 10:06:47;;;;;;;30.27;19.37;;;10.80;49.60;;;;;;4980956;28;20027;-85
2021/03/09 10:09:16;;;;;;;26.47;17.37;;;10.90;49.60;;;;;;5006339;28;20030;-85
2021/03/09 10:12:00;;;;;;;39.73;20.63;;;11.00;49.30;;;;;;4996928;28;20034;-85
2021/03/09 10:14:28;;;;;;;26.63;17.60;;;11.20;48.90;;;;;;4994433;28;20457;-85
2021/03/09 10:16:55;;;;;;;26.93;17.93;;;11.20;48.70;;;;;;4958032;28;20073;-85
2021/03/09 10:19:23;;;;;;;25.43;15.80;;;11.30;48.90;;;;;;4968524;28;20402;-84
2021/03/09 10:21:51;;;;;;;22.87;15.97;;;11.30;48.20;;;;;;4967313;28;20030;-84
2021/03/09 10:24:21;;;;;;;21.37;15.83;;;11.30;48.00;;;;;;4962256;28;20030;-84
2021/03/09 10:26:48;;;;;;;21.33;15.47;;;11.30;47.90;;;;;;4977890;28;20027;-84
2021/03/09 10:29:18;;;;;;;26.70;18.20;;;11.40;47.70;;;;;;4959428;28;20019;-84
2021/03/09 10:31:55;;;;;;;24.43;15.83;;;11.60;47.20;;;;;;4988920;28;20075;-85
2021/03/09 10:34:34;;;;;;;22.37;15.00;;;11.70;46.60;;;;;;4961159;28;20439;-84
2021/03/09 10:37:02;;;;;;;21.97;16.03;;;11.80;46.60;;;;;;4958815;28;20101;-85
2021/03/09 10:39:30;;;;;;;21.77;14.53;;;12.00;46.10;;;;;;4958467;28;20018;-85
2021/03/09 10:41:56;;;;;;;27.03;13.70;;;12.10;45.80;;;;;;4956750;28;20024;-84
2021/03/09 10:44:35;;;;;;;21.13;15.07;;;12.20;45.60;;;;;;4963905;28;20018;-84
2021/03/09 10:47:04;;;;;;;25.73;15.27;;;12.40;45.10;;;;;;4955679;28;20059;-84
2021/03/09 10:49:32;;;;;;;21.77;15.27;;;12.50;45.00;;;;;;4961523;28;20530;-84
2021/03/09 10:52:08;;;;;;;21.47;14.50;;;12.60;44.70;;;;;;4988106;28;20027;-84
2021/03/09 10:54:37;;;;;;;18.70;13.60;;;12.60;44.00;;;;;;4960035;28;20030;-85
2021/03/09 10:57:07;;;;;;;21.60;13.87;;;12.70;44.00;;;;;;4982840;28;20042;-84
2021/03/09 10:59:34;;;;;;;30.37;15.83;;;12.80;43.80;;;;;;4964689;28;20074;-85
2021/03/09 11:02:00;;;;;;;21.13;14.73;;;12.80;43.70;;;;;;4957509;28;20031;-85
2021/03/09 11:04:26;;;;;;;22.50;15.80;;;12.90;43.40;;;;;;4973465;28;20034;-85
2021/03/09 11:06:51;;;;;;;22.90;14.37;;;12.90;43.20;;;;;;4961916;28;20023;-85
2021/03/09 11:09:17;;;;;;;22.13;14.43;;;12.90;42.90;;;;;;4973034;28;20027;-85
2021/03/09 11:11:44;;;;;;;21.43;14.73;;;12.90;42.60;;;;;;4955523;29;20118;-85
2021/03/09 11:14:10;;;;;;;23.47;15.47;;;12.90;42.60;;;;;;4959598;28;20043;-85
2021/03/09 11:16:36;;;;;;;25.73;14.87;;;12.90;42.40;;;;;;4952421;28;20162;-85
2021/03/09 11:19:02;;;;;;;23.10;16.30;;;12.80;42.10;;;;;;4957877;28;20037;-85
2021/03/09 11:21:27;;;;;;;19.03;13.77;;;12.90;42.50;;;;;;4972528;28;20020;-85
2021/03/09 11:23:54;;;;;;;21.67;13.93;;;12.90;42.20;;;;;;4962208;28;20023;-85
2021/03/09 11:26:22;;;;;;;21.57;15.73;;;12.90;42.50;;;;;;4959408;28;20035;-85
2021/03/09 11:28:49;;;;;;;26.73;16.13;;;13.00;42.50;;;;;;4958033;28;20018;-85
2021/03/09 11:31:16;;;;;;;20.57;15.47;;;13.20;42.50;;;;;;4957221;28;20382;-86
2021/03/09 11:33:43;;;;;;;19.17;14.33;;;13.30;42.30;;;;;;4964284;28;20034;-86
2021/03/09 11:36:11;;;;;;;25.80;14.60;;;13.40;42.10;;;;;;4965552;28;20026;-85
2021/03/09 11:38:38;;;;;;;18.60;13.53;;;13.50;41.90;;;;;;4967232;28;20078;-85
2021/03/09 11:41:03;;;;;;;23.07;14.57;;;13.50;41.70;;;;;;4963272;28;20118;-85
2021/03/09 11:43:29;;;;;;;20.80;14.33;;;13.50;41.50;;;;;;4962203;28;20128;-86
2021/03/09 11:45:55;;;;;;;22.47;16.63;;;13.60;41.60;;;;;;4967080;28;20035;-86
2021/03/09 11:48:21;;;;;;;23.33;17.23;;;13.60;41.50;;;;;;4959748;28;20023;-85
2021/03/09 11:50:47;;;;;;;21.40;15.57;;;13.60;41.60;;;;;;4962653;28;20029;-85
2021/03/09 11:53:13;;;;;;;24.00;15.90;;;13.60;41.30;;;;;;4961923;28;20490;-85
2021/03/09 11:55:38;;;;;;;26.50;14.83;;;13.40;41.40;;;;;;4958095;28;20046;-85
2021/03/09 11:58:04;;;;;;;22.00;14.90;;;13.40;41.50;;;;;;4965329;28;20027;-85
2021/03/09 12:00:30;;;;;;;19.20;13.83;;;13.50;41.60;;;;;;4964972;28;20097;-86
2021/03/09 12:02:56;;;;;;;21.93;14.33;;;13.40;41.10;;;;;;4985240;28;20174;-86
2021/03/09 12:05:23;;;;;;;21.23;15.00;;;13.40;41.20;;;;;;4963806;28;20034;-86
2021/03/09 12:07:49;;;;;;;21.43;15.30;;;13.40;41.10;;;;;;4968836;28;20037;-86
2021/03/09 12:10:15;;;;;;;22.23;14.67;;;13.40;41.10;;;;;;4975503;28;20113;-85
2021/03/09 12:12:42;;;;;;;21.20;15.37;;;13.40;41.20;;;;;;4966875;28;20050;-85
2021/03/09 12:15:08;;;;;;;24.57;16.37;;;13.40;41.20;;;;;;4972198;28;20055;-85
2021/03/09 12:17:34;;;;;;;29.87;16.27;;;13.40;41.20;;;;;;4988091;28;20029;-85
2021/03/09 12:19:59;;;;;;;21.73;16.77;;;13.50;41.30;;;;;;4985563;28;20128;-85
2021/03/09 12:22:25;;;;;;;22.57;16.27;;;13.60;41.20;;;;;;4982864;28;20026;-85
2021/03/09 12:24:51;;;;;;;26.40;16.70;;;13.50;41.30;;;;;;5000409;28;21032;-85
2021/03/09 12:27:16;;;;;;;26.00;16.30;;;13.40;40.90;;;;;;4999569;28;20037;-85
2021/03/09 12:29:44;;;;;;;20.17;14.93;;;13.10;41.30;;;;;;4978903;28;20035;-85
2021/03/09 12:32:09;;;;;;;20.13;15.10;;;13.10;41.60;;;;;;4974460;28;20027;-85
2021/03/09 12:34:35;;;;;;;25.23;16.37;;;13.20;41.40;;;;;;4978220;28;20037;-85
2021/03/09 12:37:01;;;;;;;23.20;15.50;;;13.20;41.20;;;;;;4977983;28;20039;-85
2021/03/09 12:39:26;;;;;;;18.70;14.50;;;13.10;41.40;;;;;;4977576;28;20026;-85
2021/03/09 12:41:52;;;;;;;25.33;15.80;;;13.10;41.50;;;;;;4979745;28;20037;-83
2021/03/09 12:44:18;;;;;;;21.10;15.47;;;13.10;41.30;;;;;;4978079;28;20149;-83
2021/03/09 12:46:43;;;;;;;22.67;14.20;;;13.10;41.20;;;;;;4994718;28;20038;-83